Time;durP1;ratioP1;P1;durP2;ratioP2;P2;SDS_P1;SDS_P2;PMS_P1;PMS_P2;Temp;Humidity;BMP_temperature;BMP_pressure;BME280_temperature;BME280_humidity;BME280_pressure;Samples;Min_cycle;Max_cycle;Signal;HPM_P1;HPM_P2
2024/01/01 00:01:41;;;;;;;27.65;10.02;;;;;;;-146.25;100.00;70816.00;5092916;28;20039;-57
2024/01/01 00:04:08;;;;;;;27.05;8.88;;;;;;;-146.25;100.00;70816.00;5093044;28;20086;-57
2024/01/01 00:06:33;;;;;;;28.02;10.35;;;;;;;-146.25;100.00;70816.00;5092951;28;20456;-57
2024/01/01 00:08:58;;;;;;;23.70;8.57;;;;;;;-146.25;100.00;70816.00;5092570;28;20446;-57
2024/01/01 00:11:24;;;;;;;23.95;7.07;;;;;;;-146.25;100.00;70816.00;5092676;28;20112;-57
2024/01/01 00:13:49;;;;;;;22.95;7.57;;;;;;;-146.25;100.00;70816.00;5092873;28;20040;-58
2024/01/01 00:16:14;;;;;;;24.45;8.00;;;;;;;-146.25;100.00;70816.00;5092780;28;20028;-57
2024/01/01 00:18:41;;;;;;;19.80;5.43;;;;;;;-146.25;100.00;70816.00;5092678;28;20052;-57
2024/01/01 00:21:07;;;;;;;15.07;3.83;;;;;;;-146.25;100.00;70816.00;5092599;28;20491;-58
2024/01/01 00:23:32;;;;;;;14.70;3.60;;;;;;;-146.25;100.00;70816.00;5092333;28;20035;-58
2024/01/01 00:25:57;;;;;;;16.35;4.35;;;;;;;-146.25;100.00;70816.00;5092753;28;20426;-58
2024/01/01 00:28:23;;;;;;;16.10;4.50;;;;;;;-146.25;100.00;70816.00;5089516;28;20024;-59
2024/01/01 00:30:48;;;;;;;14.88;3.08;;;;;;;-146.25;100.00;70816.00;5072180;28;20155;-57
2024/01/01 00:33:13;;;;;;;12.20;2.53;;;;;;;-146.25;100.00;70816.00;5072169;28;20162;-57
2024/01/01 00:35:38;;;;;;;5.03;1.95;;;;;;;-146.25;100.00;70816.00;5072085;28;20036;-57
2024/01/01 00:38:04;;;;;;;13.93;2.70;;;;;;;-146.25;100.00;70816.00;5071965;28;20115;-57
2024/01/01 00:40:29;;;;;;;9.55;2.42;;;;;;;-146.25;100.00;70816.00;5071988;28;20460;-57
2024/01/01 00:42:54;;;;;;;13.07;3.03;;;;;;;-146.25;100.00;70816.00;5072164;28;20525;-57
2024/01/01 00:45:20;;;;;;;14.73;2.80;;;;;;;-146.25;100.00;70816.00;5071896;28;20040;-55
2024/01/01 00:47:45;;;;;;;11.10;2.83;;;;;;;-146.25;100.00;70816.00;5075849;28;20028;-57
2024/01/01 00:50:11;;;;;;;12.38;2.88;;;;;;;-146.25;100.00;70816.00;5086426;28;20040;-55
2024/01/01 00:52:36;;;;;;;16.17;3.17;;;;;;;-146.25;100.00;70816.00;5077645;28;20036;-56
2024/01/01 00:55:03;;;;;;;12.23;3.30;;;;;;;-146.25;100.00;70816.00;5083883;28;20037;-57
2024/01/01 00:57:28;;;;;;;11.90;3.05;;;;;;;-146.25;100.00;70816.00;5081808;28;20054;-57
2024/01/01 00:59:53;;;;;;;14.13;2.85;;;;;;;-146.25;100.00;70816.00;5076036;28;20036;-56
2024/01/01 01:02:20;;;;;;;11.32;3.40;;;;;;;-146.25;100.00;70816.00;5075580;28;20131;-58
2024/01/01 01:04:46;;;;;;;15.43;3.22;;;;;;;-146.25;100.00;70816.00;5080059;28;20047;-59
2024/01/01 01:07:12;;;;;;;14.25;3.80;;;;;;;-146.25;100.00;70816.00;5074903;28;20695;-60
2024/01/01 01:09:37;;;;;;;14.65;3.28;;;;;;;-146.25;100.00;70816.00;5072287;28;20146;-63
2024/01/01 01:12:03;;;;;;;15.15;3.60;;;;;;;-146.25;100.00;70816.00;5073198;28;20044;-60
2024/01/01 01:14:28;;;;;;;16.10;3.35;;;;;;;-146.25;100.00;70816.00;5073542;28;20036;-59
2024/01/01 01:16:53;;;;;;;11.93;2.80;;;;;;;-146.25;100.00;70816.00;5075308;28;20128;-58
2024/01/01 01:19:19;;;;;;;11.35;3.00;;;;;;;-146.25;100.00;70816.00;5078897;28;20079;-59
2024/01/01 01:21:44;;;;;;;17.48;3.35;;;;;;;-146.25;100.00;70816.00;5079140;28;20040;-57
2024/01/01 01:24:11;;;;;;;18.95;6.45;;;;;;;-146.25;100.00;70816.00;5083311;28;20097;-57
2024/01/01 01:26:36;;;;;;;16.45;4.70;;;;;;;-146.25;100.00;70816.00;5077679;28;20036;-62
2024/01/01 01:29:01;;;;;;;10.77;2.95;;;;;;;-146.25;100.00;70816.00;5075854;28;20036;-61
2024/01/01 01:31:27;;;;;;;12.27;2.72;;;;;;;-146.25;100.00;70816.00;5077843;28;20408;-61
2024/01/01 01:33:53;;;;;;;14.23;3.25;;;;;;;-146.25;100.00;70816.00;5083065;28;20040;-61
2024/01/01 01:36:18;;;;;;;15.40;3.15;;;;;;;-146.25;100.00;70816.00;5074609;28;20412;-63
2024/01/01 01:38:43;;;;;;;13.60;2.75;;;;;;;-146.25;100.00;70816.00;5075229;28;20043;-62
2024/01/01 01:41:09;;;;;;;10.40;2.28;;;;;;;-146.25;100.00;70816.00;5074679;28;20036;-62
2024/01/01 01:43:34;;;;;;;13.50;2.55;;;;;;;-146.25;100.00;70816.00;5071887;28;20442;-60
2024/01/01 01:45:59;;;;;;;15.63;3.00;;;;;;;-146.25;100.00;70816.00;5074882;28;20036;-61
2024/01/01 01:48:26;;;;;;;12.88;2.83;;;;;;;-146.25;100.00;70816.00;5071240;28;20046;-63
2024/01/01 01:50:51;;;;;;;13.52;2.42;;;;;;;-146.25;100.00;70816.00;5071414;28;20117;-63
2024/01/01 01:53:23;;;;;;;10.60;2.15;;;;;;;-146.25;100.00;70816.00;5072079;28;20063;-62
2024/01/01 01:55:50;;;;;;;13.50;2.70;;;;;;;-146.25;100.00;70816.00;5076877;28;20480;-63
2024/01/01 01:58:16;;;;;;;16.35;2.88;;;;;;;-146.25;100.00;70816.00;5073953;28;20051;-62
2024/01/01 02:00:42;;;;;;;17.70;3.03;;;;;;;-146.25;100.00;70816.00;5074948;28;20028;-62
2024/01/01 02:03:08;;;;;;;15.27;3.40;;;;;;;-146.25;100.00;70816.00;5074895;28;20083;-64
2024/01/01 02:05:33;;;;;;;15.90;2.90;;;;;;;-146.25;100.00;70816.00;5073357;28;20101;-63
2024/01/01 02:08:00;;;;;;;13.48;3.28;;;;;;;-146.25;100.00;70816.00;5071827;28;20040;-63
2024/01/01 02:10:26;;;;;;;14.88;2.83;;;;;;;-146.25;100.00;70816.00;5076170;28;20033;-63
2024/01/01 02:12:51;;;;;;;14.40;3.28;;;;;;;-146.25;100.00;70816.00;5076561;28;20085;-62
2024/01/01 02:15:17;;;;;;;10.57;2.30;;;;;;;-146.25;100.00;70816.00;5072550;28;20042;-63
2024/01/01 02:17:42;;;;;;;11.77;2.65;;;;;;;-146.25;100.00;70816.00;5074650;28;20122;-63
2024/01/01 02:20:07;;;;;;;16.85;2.70;;;;;;;-146.25;100.00;70816.00;5075664;28;20512;-63
2024/01/01 02:22:37;;;;;;;16.15;2.85;;;;;;;-146.25;100.00;70816.00;5074963;28;20389;-63
2024/01/01 02:25:04;;;;;;;15.10;2.58;;;;;;;-146.25;100.00;70816.00;5072633;28;20033;-63
2024/01/01 02:27:29;;;;;;;16.40;2.88;;;;;;;-146.25;100.00;70816.00;5076135;28;20088;-63
2024/01/01 02:29:54;;;;;;;18.00;3.00;;;;;;;-146.25;100.00;70816.00;5075649;28;20037;-62
2024/01/01 02:32:19;;;;;;;15.02;2.50;;;;;;;-146.25;100.00;70816.00;5077003;28;20032;-62
2024/01/01 02:34:48;;;;;;;15.27;2.35;;;;;;;-146.25;100.00;70816.00;5075492;28;20528;-62
2024/01/01 02:37:13;;;;;;;14.50;2.83;;;;;;;-146.25;100.00;70816.00;5074832;28;20044;-62
2024/01/01 02:39:38;;;;;;;15.25;2.75;;;;;;;-146.25;100.00;70816.00;5075826;28;20086;-62
2024/01/01 02:42:04;;;;;;;14.23;2.15;;;;;;;-146.25;100.00;70816.00;5074032;28;20051;-62
2024/01/01 02:44:29;;;;;;;11.30;2.65;;;;;;;-146.25;100.00;70816.00;5073067;28;20367;-61
2024/01/01 02:46:54;;;;;;;16.08;2.97;;;;;;;-146.25;100.00;70816.00;5075785;28;20385;-62
2024/01/01 02:49:20;;;;;;;15.57;2.72;;;;;;;-146.25;100.00;70816.00;5073544;28;20043;-60
2024/01/01 02:51:46;;;;;;;15.38;2.80;;;;;;;-146.25;100.00;70816.00;5076541;28;20469;-62
2024/01/01 02:54:11;;;;;;;15.63;2.80;;;;;;;-146.25;100.00;70816.00;5075807;28;20535;-63
2024/01/01 02:56:37;;;;;;;12.93;2.85;;;;;;;-146.25;100.00;70816.00;5073000;28;20115;-62
2024/01/01 02:59:02;;;;;;;12.77;2.38;;;;;;;-146.25;100.00;70816.00;5064369;28;20032;-63
2024/01/01 03:01:27;;;;;;;15.00;2.60;;;;;;;-146.25;100.00;70816.00;5075461;28;20043;-61
2024/01/01 03:03:53;;;;;;;16.17;3.10;;;;;;;-146.25;100.00;70816.00;5072941;28;20546;-63
2024/01/01 03:06:18;;;;;;;16.38;2.67;;;;;;;-146.25;100.00;70816.00;5071504;28;20391;-61
2024/01/01 03:08:44;;;;;;;15.18;2.63;;;;;;;-146.25;100.00;70816.00;5071791;28;20804;-61
2024/01/01 03:11:10;;;;;;;17.13;2.80;;;;;;;-146.25;100.00;70816.00;5072518;28;20063;-61
2024/01/01 03:13:35;;;;;;;15.75;3.20;;;;;;;-146.25;100.00;70816.00;5073630;28;20060;-62
2024/01/01 03:16:01;;;;;;;17.67;3.10;;;;;;;-146.25;100.00;70816.00;5072177;28;20069;-61
2024/01/01 03:18:26;;;;;;;15.93;3.00;;;;;;;-146.25;100.00;70816.00;5075188;28;20388;-61
2024/01/01 03:20:51;;;;;;;19.13;2.92;;;;;;;-146.25;100.00;70816.00;5074576;28;20063;-62
2024/01/01 03:23:17;;;;;;;18.85;3.15;;;;;;;-146.25;100.00;70816.00;5075145;28;20035;-61
2024/01/01 03:25:42;;;;;;;17.75;2.85;;;;;;;-146.25;100.00;70816.00;5073220;28;20115;-61
2024/01/01 03:28:07;;;;;;;17.77;3.30;;;;;;;-146.25;100.00;70816.00;5074063;28;20917;-62
2024/01/01 03:30:33;;;;;;;15.80;3.15;;;;;;;-146.25;100.00;70816.00;5075227;28;20131;-64
2024/01/01 03:32:58;;;;;;;17.60;3.03;;;;;;;-146.25;100.00;70816.00;5073633;28;20391;-62
2024/01/01 03:35:23;;;;;;;15.07;2.42;;;;;;;-146.25;100.00;70816.00;5074122;28;20616;-61
2024/01/01 03:37:49;;;;;;;15.43;2.70;;;;;;;-146.25;100.00;70816.00;5071883;28;20048;-62
2024/01/01 03:40:14;;;;;;;15.13;2.60;;;;;;;-146.25;100.00;70816.00;5070523;28;20081;-62
2024/01/01 03:42:39;;;;;;;16.58;2.90;;;;;;;-146.25;100.00;70816.00;5072934;28;20399;-63
2024/01/01 03:45:05;;;;;;;16.40;2.60;;;;;;;-146.25;100.00;70816.00;5073493;28;20064;-62
2024/01/01 03:47:32;;;;;;;17.63;3.03;;;;;;;-146.25;100.00;70816.00;5072455;28;20704;-61
2024/01/01 03:49:58;;;;;;;18.95;2.67;;;;;;;-146.25;100.00;70816.00;5073707;28;20122;-61
2024/01/01 03:52:24;;;;;;;20.92;3.38;;;;;;;-146.25;100.00;70816.00;5072276;28;20524;-61
2024/01/01 03:54:49;;;;;;;18.48;2.75;;;;;;;-146.25;100.00;70816.00;5073555;28;20040;-61
2024/01/01 03:57:14;;;;;;;18.02;2.83;;;;;;;-146.25;100.00;70816.00;5077192;28;20505;-61
2024/01/01 03:59:40;;;;;;;16.35;3.05;;;;;;;-146.25;100.00;70816.00;5072639;28;20043;-62
2024/01/01 04:02:05;;;;;;;19.42;3.17;;;;;;;-146.25;100.00;70816.00;5075855;28;20031;-62
2024/01/01 04:04:31;;;;;;;18.80;2.78;;;;;;;-146.25;100.00;70816.00;5072814;28;20036;-62
2024/01/01 04:06:56;;;;;;;17.35;3.00;;;;;;;-146.25;100.00;70816.00;5074348;28;20040;-63
2024/01/01 04:09:21;;;;;;;15.65;2.80;;;;;;;-146.25;100.00;70816.00;5070601;28;20391;-61
2024/01/01 04:11:46;;;;;;;16.88;2.78;;;;;;;-146.25;100.00;70816.00;5072590;28;20072;-61
2024/01/01 04:14:12;;;;;;;13.43;2.50;;;;;;;-146.25;100.00;70816.00;5072392;28;20492;-62
2024/01/01 04:16:37;;;;;;;19.08;3.22;;;;;;;-146.25;100.00;70816.00;5063982;28;20071;-61
2024/01/01 04:19:03;;;;;;;15.50;2.47;;;;;;;-146.25;100.00;70816.00;5073373;28;20081;-61
2024/01/01 04:21:29;;;;;;;17.75;2.60;;;;;;;-146.25;100.00;70816.00;5072776;28;20032;-61
2024/01/01 04:23:55;;;;;;;16.73;2.72;;;;;;;-146.25;100.00;70816.00;5073632;28;20056;-62
2024/01/01 04:26:21;;;;;;;18.00;2.88;;;;;;;-146.25;100.00;70816.00;5073506;28;20044;-62
2024/01/01 04:28:46;;;;;;;14.38;2.58;;;;;;;-146.25;100.00;70816.00;5071853;28;20094;-61
2024/01/01 04:31:11;;;;;;;13.63;2.30;;;;;;;-146.25;100.00;70816.00;5073642;28;20029;-63
2024/01/01 04:33:36;;;;;;;11.80;2.13;;;;;;;-146.25;100.00;70816.00;5074377;28;20032;-61
2024/01/01 04:36:03;;;;;;;14.45;2.03;;;;;;;-146.25;100.00;70816.00;5070752;28;20046;-61
2024/01/01 04:38:29;;;;;;;14.23;2.30;;;;;;;-146.25;100.00;70816.00;5072818;28;20075;-62
2024/01/01 04:40:54;;;;;;;13.77;2.25;;;;;;;-146.25;100.00;70816.00;5077954;28;20064;-60
2024/01/01 04:43:20;;;;;;;16.30;2.42;;;;;;;-146.25;100.00;70816.00;5074908;28;20518;-60
2024/01/01 04:45:45;;;;;;;16.17;2.53;;;;;;;-146.25;100.00;70816.00;5079054;28;20039;-62
2024/01/01 04:48:10;;;;;;;14.57;2.20;;;;;;;-146.25;100.00;70816.00;5048143;28;20514;-62
2024/01/01 04:50:36;;;;;;;17.15;2.72;;;;;;;-146.25;100.00;70816.00;5075069;28;20393;-61
2024/01/01 04:53:01;;;;;;;16.02;2.40;;;;;;;-146.25;100.00;70816.00;5075390;28;20033;-60
2024/01/01 04:55:27;;;;;;;12.98;2.30;;;;;;;-146.25;100.00;70816.00;5074366;28;20043;-62
2024/01/01 04:57:52;;;;;;;14.23;2.40;;;;;;;-146.25;100.00;70816.00;5065601;28;20044;-62
2024/01/01 05:00:17;;;;;;;9.07;2.08;;;;;;;-146.25;100.00;70816.00;5074787;28;20075;-62
2024/01/01 05:02:43;;;;;;;11.20;2.40;;;;;;;-146.25;100.00;70816.00;5077661;28;20075;-61
2024/01/01 05:05:08;;;;;;;15.45;2.72;;;;;;;-146.25;100.00;70816.00;5076289;28;20047;-60
2024/01/01 05:07:35;;;;;;;14.57;2.70;;;;;;;-146.25;100.00;70816.00;5076687;28;20043;-61
2024/01/01 05:10:01;;;;;;;13.23;2.33;;;;;;;-146.25;100.00;70816.00;5074771;28;20039;-60
2024/01/01 05:12:26;;;;;;;17.08;3.03;;;;;;;-146.25;100.00;70816.00;5078107;28;20063;-60
2024/01/01 05:14:51;;;;;;;11.48;1.98;;;;;;;-146.25;100.00;70816.00;5079002;28;20480;-60
2024/01/01 05:17:17;;;;;;;12.32;2.30;;;;;;;-146.25;100.00;70816.00;5064269;28;20135;-61
2024/01/01 05:19:42;;;;;;;14.50;2.60;;;;;;;-146.25;100.00;70816.00;5075757;28;20147;-62
2024/01/01 05:22:07;;;;;;;16.92;2.63;;;;;;;-146.25;100.00;70816.00;5075652;28;20467;-61
2024/01/01 05:24:35;;;;;;;17.58;2.78;;;;;;;-146.25;100.00;70816.00;5076546;28;20050;-61
2024/01/01 05:27:01;;;;;;;15.38;2.50;;;;;;;-146.25;100.00;70816.00;5074062;28;20042;-62
2024/01/01 05:29:26;;;;;;;12.77;2.47;;;;;;;-146.25;100.00;70816.00;5077042;28;20035;-62
2024/01/01 05:31:51;;;;;;;15.40;2.83;;;;;;;-146.25;100.00;70816.00;5073723;28;20063;-61
2024/01/01 05:34:16;;;;;;;16.00;2.45;;;;;;;-146.25;100.00;70816.00;5076322;28;20043;-62
2024/01/01 05:36:42;;;;;;;13.77;2.35;;;;;;;-146.25;100.00;70816.00;5075295;28;20130;-63
2024/01/01 05:39:07;;;;;;;11.52;2.40;;;;;;;-146.25;100.00;70816.00;5076544;28;20439;-62
2024/01/01 05:41:32;;;;;;;17.65;2.50;;;;;;;-146.25;100.00;70816.00;5075512;28;20123;-61
2024/01/01 05:43:58;;;;;;;10.50;1.90;;;;;;;-146.25;100.00;70816.00;5074752;28;20028;-61
2024/01/01 05:46:23;;;;;;;19.52;2.65;;;;;;;-146.25;100.00;70816.00;5075966;28;20545;-61
2024/01/01 05:48:49;;;;;;;14.85;2.42;;;;;;;-146.25;100.00;70816.00;5074560;28;20040;-60
2024/01/01 05:51:16;;;;;;;13.70;2.30;;;;;;;-146.25;100.00;70816.00;5074514;28;20133;-61
2024/01/01 05:53:41;;;;;;;14.38;2.20;;;;;;;-146.25;100.00;70816.00;5077469;28;20036;-60
2024/01/01 05:56:07;;;;;;;11.93;3.00;;;;;;;-146.25;100.00;70816.00;5076169;28;20043;-59
2024/01/01 05:58:32;;;;;;;12.55;2.20;;;;;;;-146.25;100.00;70816.00;5075116;28;20036;-60
2024/01/01 06:00:57;;;;;;;12.98;2.30;;;;;;;-146.25;100.00;70816.00;5075767;28;20032;-61
2024/01/01 06:03:23;;;;;;;17.15;2.40;;;;;;;-146.25;100.00;70816.00;5076505;28;20046;-61
2024/01/01 06:05:48;;;;;;;14.75;3.00;;;;;;;-146.25;100.00;70816.00;5078005;28;22767;-61
2024/01/01 06:08:14;;;;;;;11.15;2.30;;;;;;;-146.25;100.00;70816.00;5076225;28;20032;-62
2024/01/01 06:10:39;;;;;;;14.23;2.35;;;;;;;-146.25;100.00;70816.00;5076522;28;20032;-61
2024/01/01 06:13:04;;;;;;;11.63;2.10;;;;;;;-146.25;100.00;70816.00;5072837;28;20020;-61
2024/01/01 06:15:30;;;;;;;18.15;2.50;;;;;;;-146.25;100.00;70816.00;5077107;28;20044;-60
2024/01/01 06:17:56;;;;;;;14.82;2.50;;;;;;;-146.25;100.00;70816.00;5075621;28;20052;-60
2024/01/01 06:20:21;;;;;;;13.00;2.42;;;;;;;-146.25;100.00;70816.00;5073768;28;20114;-63
2024/01/01 06:22:47;;;;;;;14.60;2.55;;;;;;;-146.25;100.00;70816.00;5063194;28;20037;-62
2024/01/01 06:25:12;;;;;;;9.18;2.38;;;;;;;-146.25;100.00;70816.00;5074539;28;20129;-62
2024/01/01 06:27:38;;;;;;;12.88;2.50;;;;;;;-146.25;100.00;70816.00;5075563;28;20170;-62
2024/01/01 06:30:06;;;;;;;17.48;2.60;;;;;;;-146.25;100.00;70816.00;5072132;28;20032;-61
2024/01/01 06:32:32;;;;;;;13.13;2.67;;;;;;;-146.25;100.00;70816.00;5063883;28;20487;-63
2024/01/01 06:34:57;;;;;;;17.67;2.88;;;;;;;-146.25;100.00;70816.00;5074273;28;20134;-63
2024/01/01 06:37:23;;;;;;;12.23;3.40;;;;;;;-146.25;100.00;70816.00;5074166;28;20108;-61
2024/01/01 06:39:48;;;;;;;14.60;2.35;;;;;;;-146.25;100.00;70816.00;5074308;28;20506;-61
2024/01/01 06:42:15;;;;;;;16.67;2.85;;;;;;;-146.25;100.00;70816.00;5072752;28;20448;-63
2024/01/01 06:44:41;;;;;;;13.90;2.35;;;;;;;-146.25;100.00;70816.00;5072110;28;20073;-60
2024/01/01 06:47:06;;;;;;;13.32;2.40;;;;;;;-146.25;100.00;70816.00;5074572;28;20440;-61
2024/01/01 06:49:31;;;;;;;12.88;2.65;;;;;;;-146.25;100.00;70816.00;5064153;28;20142;-62
2024/01/01 06:51:57;;;;;;;14.35;2.92;;;;;;;-146.25;100.00;70816.00;5074861;28;20101;-61
2024/01/01 06:54:22;;;;;;;15.73;2.85;;;;;;;-146.25;100.00;70816.00;5076475;28;20458;-62
2024/01/01 06:56:47;;;;;;;17.08;2.50;;;;;;;-146.25;100.00;70816.00;5075709;28;20488;-62
2024/01/01 06:59:13;;;;;;;13.77;3.05;;;;;;;-146.25;100.00;70816.00;5072091;28;20475;-63
2024/01/01 07:01:39;;;;;;;17.73;3.47;;;;;;;-146.25;100.00;70816.00;5072072;28;20032;-62
2024/01/01 07:04:04;;;;;;;20.05;4.35;;;;;;;-146.25;100.00;70816.00;5073691;28;20040;-61
2024/01/01 07:06:29;;;;;;;12.70;2.45;;;;;;;-146.25;100.00;70816.00;5074053;28;20092;-63
2024/01/01 07:08:55;;;;;;;16.05;2.95;;;;;;;-146.25;100.00;70816.00;5073425;28;20395;-62
2024/01/01 07:11:20;;;;;;;16.92;2.63;;;;;;;-146.25;100.00;70816.00;5076588;28;20484;-61
2024/01/01 07:13:45;;;;;;;14.80;3.33;;;;;;;-146.25;100.00;70816.00;5071020;28;20120;-61
2024/01/01 07:16:11;;;;;;;15.02;2.50;;;;;;;-146.25;100.00;70816.00;5070585;28;20043;-62
2024/01/01 07:18:36;;;;;;;14.68;2.90;;;;;;;-146.25;100.00;70816.00;5076492;28;20396;-61
2024/01/01 07:21:02;;;;;;;14.27;2.33;;;;;;;-146.25;100.00;70816.00;5075210;28;20407;-61
2024/01/01 07:23:29;;;;;;;13.63;2.60;;;;;;;-146.25;100.00;70816.00;5075100;28;20042;-62
2024/01/01 07:25:54;;;;;;;17.02;2.80;;;;;;;-146.25;100.00;70816.00;5074203;28;20043;-61
2024/01/01 07:28:19;;;;;;;16.05;2.60;;;;;;;-146.25;100.00;70816.00;5075851;28;20028;-62
2024/01/01 07:30:45;;;;;;;15.07;2.85;;;;;;;-146.25;100.00;70816.00;5067736;28;20186;-62
2024/01/01 07:33:10;;;;;;;14.75;2.70;;;;;;;-146.25;100.00;70816.00;5088358;28;20046;-62
2024/01/01 07:35:35;;;;;;;15.73;3.00;;;;;;;-146.25;100.00;70816.00;5073942;28;20032;-62
2024/01/01 07:38:01;;;;;;;13.13;2.80;;;;;;;-146.25;100.00;70816.00;5073771;28;20047;-62
2024/01/01 07:40:26;;;;;;;17.42;2.60;;;;;;;-146.25;100.00;70816.00;5071222;28;20033;-62
2024/01/01 07:42:51;;;;;;;13.57;2.90;;;;;;;-146.25;100.00;70816.00;5072757;28;20085;-61
2024/01/01 07:45:17;;;;;;;14.40;3.08;;;;;;;-146.25;100.00;70816.00;5076277;28;20514;-63
2024/01/01 07:47:42;;;;;;;13.10;2.70;;;;;;;-146.25;100.00;70816.00;5072823;28;20471;-62
2024/01/01 07:50:07;;;;;;;14.07;2.38;;;;;;;-146.25;100.00;70816.00;5071936;28;20108;-62
2024/01/01 07:52:33;;;;;;;15.93;3.10;;;;;;;-146.25;100.00;70816.00;5072175;28;20518;-63
2024/01/01 07:54:58;;;;;;;11.70;2.30;;;;;;;-146.25;100.00;70816.00;5074272;28;20143;-60
2024/01/01 07:57:24;;;;;;;15.80;3.03;;;;;;;-146.25;100.00;70816.00;5073945;28;20369;-61
2024/01/01 07:59:51;;;;;;;15.60;2.72;;;;;;;-146.25;100.00;70816.00;5074154;28;20426;-61
2024/01/01 08:02:17;;;;;;;21.52;3.80;;;;;;;-146.25;100.00;70816.00;5073607;28;20038;-62
2024/01/01 08:04:42;;;;;;;17.83;3.78;;;;;;;-146.25;100.00;70816.00;5074552;28;20394;-61
2024/01/01 08:07:08;;;;;;;15.25;3.03;;;;;;;-146.25;100.00;70816.00;5073059;28;20028;-62
2024/01/01 08:09:33;;;;;;;20.98;4.53;;;;;;;-146.25;100.00;70816.00;5072534;28;20032;-61
2024/01/01 08:11:58;;;;;;;13.25;2.88;;;;;;;-146.25;100.00;70816.00;5072881;28;20028;-61
2024/01/01 08:14:24;;;;;;;17.70;3.03;;;;;;;-146.25;100.00;70816.00;5076917;28;20138;-60
2024/01/01 08:16:49;;;;;;;20.15;5.40;;;;;;;-146.25;100.00;70816.00;5080389;28;20040;-63
2024/01/01 08:19:15;;;;;;;21.50;5.82;;;;;;;-146.25;100.00;70816.00;5076658;28;20420;-61
2024/01/01 08:21:40;;;;;;;17.27;3.22;;;;;;;-146.25;100.00;70816.00;5077165;28;20044;-61
2024/01/01 08:24:06;;;;;;;21.00;4.57;;;;;;;-146.25;100.00;70816.00;5076008;28;20041;-61
2024/01/01 08:26:31;;;;;;;13.52;2.53;;;;;;;-146.25;100.00;70816.00;5076100;28;20089;-61
2024/01/01 08:28:56;;;;;;;14.00;3.08;;;;;;;-146.25;100.00;70816.00;5075458;28;20037;-61
2024/01/01 08:31:22;;;;;;;13.85;3.05;;;;;;;-146.25;100.00;70816.00;5073845;28;20032;-62
2024/01/01 08:33:47;;;;;;;13.20;2.72;;;;;;;-146.25;100.00;70816.00;5079439;28;20028;-61
2024/01/01 08:36:12;;;;;;;15.43;2.60;;;;;;;-146.25;100.00;70816.00;5078103;28;20080;-61
2024/01/01 08:38:38;;;;;;;17.02;2.92;;;;;;;-146.25;100.00;70816.00;5077673;28;20483;-62
2024/01/01 08:41:03;;;;;;;14.35;2.30;;;;;;;-146.25;100.00;70816.00;5075812;28;20032;-63
2024/01/01 08:43:29;;;;;;;16.75;3.33;;;;;;;-146.25;100.00;70816.00;5064736;28;20044;-63
2024/01/01 08:45:54;;;;;;;15.35;2.78;;;;;;;-146.25;100.00;70816.00;5074818;28;20028;-63
2024/01/01 08:48:19;;;;;;;19.23;3.85;;;;;;;-146.25;100.00;70816.00;5076411;28;20083;-62
2024/01/01 08:50:45;;;;;;;10.85;2.50;;;;;;;-146.25;100.00;70816.00;5075460;28;20054;-62
2024/01/01 08:53:10;;;;;;;10.95;2.40;;;;;;;-146.25;100.00;70816.00;5076095;28;20144;-62
2024/01/01 08:55:36;;;;;;;12.90;2.78;;;;;;;-146.25;100.00;70816.00;5078598;28;20078;-62
2024/01/01 08:58:02;;;;;;;15.02;2.80;;;;;;;-146.25;100.00;70816.00;5077856;28;20183;-62
2024/01/01 09:00:27;;;;;;;16.83;2.90;;;;;;;-146.25;100.00;70816.00;5074779;28;20032;-63
2024/01/01 09:02:52;;;;;;;16.98;2.83;;;;;;;-146.25;100.00;70816.00;5088049;28;20451;-63
2024/01/01 09:05:18;;;;;;;12.30;2.78;;;;;;;-146.25;100.00;70816.00;5072890;28;20040;-63
2024/01/01 09:07:43;;;;;;;12.93;2.80;;;;;;;-146.25;100.00;70816.00;5080616;28;20044;-63
2024/01/01 09:10:08;;;;;;;15.70;3.40;;;;;;;-146.25;100.00;70816.00;5082819;28;20546;-63
2024/01/01 09:12:34;;;;;;;16.38;3.17;;;;;;;-146.25;100.00;70816.00;5082200;28;20494;-63
2024/01/01 09:14:59;;;;;;;18.20;3.15;;;;;;;-146.25;100.00;70816.00;5078734;28;20040;-62
2024/01/01 09:17:24;;;;;;;16.17;3.65;;;;;;;-146.25;100.00;70816.00;5074433;28;20040;-63
2024/01/01 09:19:52;;;;;;;18.35;3.33;;;;;;;-146.25;100.00;70816.00;5074374;28;20050;-64
2024/01/01 09:22:18;;;;;;;18.30;3.78;;;;;;;-146.25;100.00;70816.00;5080644;28;20385;-63
2024/01/01 09:24:43;;;;;;;10.25;2.17;;;;;;;-146.25;100.00;70816.00;5083969;28;20094;-62
2024/01/01 09:27:09;;;;;;;14.07;2.60;;;;;;;-146.25;100.00;70816.00;5079896;28;20063;-62
2024/01/01 09:29:34;;;;;;;13.70;2.80;;;;;;;-146.25;100.00;70816.00;5081433;28;20048;-66
2024/01/01 09:31:59;;;;;;;13.43;2.83;;;;;;;-146.25;100.00;70816.00;5081122;28;20052;-62
2024/01/01 09:34:24;;;;;;;13.95;2.85;;;;;;;-146.25;100.00;70816.00;5078963;28;20145;-62
2024/01/01 09:36:50;;;;;;;16.25;2.90;;;;;;;-146.25;100.00;70816.00;5070648;28;20048;-60
2024/01/01 09:39:15;;;;;;;13.65;2.67;;;;;;;-146.25;100.00;70816.00;5082764;28;20031;-62
2024/01/01 09:41:40;;;;;;;12.57;2.70;;;;;;;-146.25;100.00;70816.00;5074083;28;20037;-62
2024/01/01 09:44:05;;;;;;;14.23;2.40;;;;;;;-146.25;100.00;70816.00;5077769;28;20035;-62
2024/01/01 09:46:33;;;;;;;14.45;2.90;;;;;;;-146.25;100.00;70816.00;5076743;28;20047;-62
2024/01/01 09:49:01;;;;;;;11.52;2.55;;;;;;;-146.25;100.00;70816.00;5087617;28;20039;-63
2024/01/01 09:51:27;;;;;;;13.13;2.95;;;;;;;-146.25;100.00;70816.00;5083712;28;20044;-63
2024/01/01 09:53:52;;;;;;;12.05;2.88;;;;;;;-146.25;100.00;70816.00;5078543;28;20046;-63
2024/01/01 09:56:18;;;;;;;10.05;2.42;;;;;;;-146.25;100.00;70816.00;5079545;28;20040;-63
2024/01/01 09:58:44;;;;;;;17.50;2.78;;;;;;;-146.25;100.00;70816.00;5082317;28;20483;-63
2024/01/01 10:01:12;;;;;;;14.00;2.78;;;;;;;-146.25;100.00;70816.00;5087051;28;20054;-62
2024/01/01 10:03:38;;;;;;;18.65;3.40;;;;;;;-146.25;100.00;70816.00;5083716;28;20036;-62
2024/01/01 10:06:08;;;;;;;17.80;3.10;;;;;;;-146.25;100.00;70816.00;5080849;28;20113;-65
2024/01/01 10:08:34;;;;;;;15.05;2.90;;;;;;;-146.25;100.00;70816.00;5090563;28;20076;-62
2024/01/01 10:11:20;;;;;;;12.07;2.95;;;;;;;-146.25;100.00;70816.00;5081393;28;20072;-62
2024/01/01 10:13:47;;;;;;;17.17;3.70;;;;;;;-146.25;100.00;70816.00;5075172;28;20112;-62
2024/01/01 10:16:28;;;;;;;16.23;3.30;;;;;;;-146.25;100.00;70816.00;5070078;28;20040;-63
2024/01/01 10:18:58;;;;;;;14.88;3.03;;;;;;;-146.25;100.00;70816.00;5071972;28;20490;-62
2024/01/01 10:21:41;;;;;;;13.70;2.88;;;;;;;-146.25;100.00;70816.00;5072146;28;20033;-62
2024/01/01 10:24:15;;;;;;;11.82;2.78;;;;;;;-146.25;100.00;70816.00;5072330;28;20472;-62
2024/01/01 10:26:45;;;;;;;13.95;2.95;;;;;;;-146.25;100.00;70816.00;5072108;28;20455;-62
2024/01/01 10:29:14;;;;;;;17.00;2.60;;;;;;;-146.25;100.00;70816.00;5071473;28;20044;-62
2024/01/01 10:31:50;;;;;;;11.30;2.67;;;;;;;-146.25;100.00;70816.00;5070017;28;20041;-62
2024/01/01 10:34:15;;;;;;;16.88;2.67;;;;;;;-146.25;100.00;70816.00;5069996;28;20170;-63
2024/01/01 10:36:41;;;;;;;19.83;3.88;;;;;;;-146.25;100.00;70816.00;5069640;28;20131;-63
2024/01/01 10:39:08;;;;;;;15.57;2.85;;;;;;;-146.25;100.00;70816.00;5070962;28;20043;-62
2024/01/01 10:41:36;;;;;;;16.38;3.75;;;;;;;-146.25;100.00;70816.00;5070514;28;20366;-62
2024/01/01 10:44:08;;;;;;;18.13;3.72;;;;;;;-146.25;100.00;70816.00;5070533;28;20055;-63
2024/01/01 10:47:01;;;;;;;22.05;6.13;;;;;;;-146.25;100.00;70816.00;5072163;28;20036;-63
2024/01/01 10:49:31;;;;;;;14.73;3.30;;;;;;;-146.25;100.00;70816.00;5066671;28;20476;-62
2024/01/01 10:52:25;;;;;;;16.58;3.95;;;;;;;-146.25;100.00;70816.00;5071747;28;20118;-63
2024/01/01 10:54:58;;;;;;;16.60;3.67;;;;;;;-146.25;100.00;70816.00;5071664;28;20056;-63
2024/01/01 10:57:42;;;;;;;16.80;3.47;;;;;;;-146.25;100.00;70816.00;5071755;28;20047;-62